createdAt,value
2018-11-13T00:00:41.413Z,13.10
2018-11-13T00:03:12.000Z,13.00
2018-11-13T00:05:40.959Z,13.10
2018-11-13T00:08:10.396Z,13.20
2018-11-13T00:10:42.596Z,13.30
2018-11-13T00:13:12.630Z,13.40
2018-11-13T00:15:48.436Z,13.50
2018-11-13T00:18:17.837Z,13.50
2018-11-13T00:20:47.780Z,13.50
2018-11-13T00:23:30.424Z,13.50
2018-11-13T00:26:00.585Z,13.50
2018-11-13T00:28:29.508Z,13.60
2018-11-13T00:30:59.197Z,13.50
2018-11-13T00:35:53.122Z,13.50
2018-11-13T00:38:21.661Z,13.40
2018-11-13T00:40:52.188Z,13.30
2018-11-13T00:43:21.115Z,13.30
2018-11-13T00:48:32.724Z,13.40
2018-11-13T00:51:14.500Z,13.50
2018-11-13T00:53:42.778Z,13.30
2018-11-13T00:56:11.042Z,13.20
2018-11-13T00:58:39.307Z,13.10
2018-11-13T01:01:07.586Z,13.00
2018-11-13T01:03:35.827Z,13.00
2018-11-13T01:06:04.104Z,12.80
2018-11-13T01:08:32.408Z,12.70
2018-11-13T01:11:00.776Z,12.80
2018-11-13T01:13:29.456Z,12.70
2018-11-13T01:15:57.462Z,12.70
2018-11-13T01:18:25.734Z,12.70
2018-11-13T01:20:53.976Z,12.70
2018-11-13T01:23:22.415Z,12.60
2018-11-13T01:25:50.554Z,12.50
2018-11-13T01:28:18.872Z,12.60
2018-11-13T01:30:47.153Z,12.70
2018-11-13T01:33:15.445Z,12.70
2018-11-13T01:35:43.709Z,12.90
2018-11-13T01:38:12.013Z,12.90
2018-11-13T01:40:40.272Z,12.90
2018-11-13T01:43:08.593Z,13.00
2018-11-13T01:45:36.842Z,13.00
2018-11-13T01:48:05.156Z,12.90
2018-11-13T01:50:33.424Z,12.90
2018-11-13T01:53:01.697Z,13.00
2018-11-13T01:55:29.986Z,13.00
2018-11-13T01:57:58.244Z,13.10
2018-11-13T02:00:26.528Z,13.10
2018-11-13T02:02:55.774Z,13.10
2018-11-13T02:05:25.112Z,13.10
2018-11-13T02:07:54.041Z,13.20
2018-11-13T02:10:22.501Z,13.20
2018-11-13T02:12:51.288Z,13.20
2018-11-13T02:15:20.057Z,13.30
2018-11-13T02:17:48.336Z,13.30
2018-11-13T02:20:17.990Z,13.30
2018-11-13T02:22:46.277Z,13.20
2018-11-13T02:25:15.609Z,13.20
2018-11-13T02:27:44.233Z,13.10
2018-11-13T02:30:15.148Z,13.10
2018-11-13T02:32:43.968Z,13.10
2018-11-13T02:35:12.620Z,13.00
2018-11-13T02:37:41.010Z,12.90
2018-11-13T02:40:09.297Z,12.90
2018-11-13T02:42:38.158Z,12.80
2018-11-13T02:45:08.613Z,12.80
2018-11-13T02:47:36.974Z,12.80
2018-11-13T02:50:06.977Z,12.70
2018-11-13T02:52:35.284Z,12.60
2018-11-13T02:55:03.640Z,12.60
2018-11-13T02:57:31.898Z,12.50
2018-11-13T03:00:00.184Z,12.40
2018-11-13T03:02:28.493Z,12.50
2018-11-13T03:04:56.775Z,12.50
2018-11-13T03:07:25.034Z,12.60
2018-11-13T03:09:53.276Z,12.50
2018-11-13T03:12:21.632Z,12.50
2018-11-13T03:14:49.954Z,12.50
2018-11-13T03:17:18.280Z,12.50
2018-11-13T03:19:46.593Z,12.60
2018-11-13T03:22:14.840Z,12.60
2018-11-13T03:24:43.114Z,12.70
2018-11-13T03:27:11.387Z,12.80
2018-11-13T03:29:39.742Z,12.80
2018-11-13T03:32:08.021Z,12.80
2018-11-13T03:34:36.360Z,12.70
2018-11-13T03:37:04.790Z,12.80
2018-11-13T03:39:33.088Z,12.90
2018-11-13T03:42:01.318Z,12.90
2018-11-13T03:44:29.622Z,12.90
2018-11-13T03:46:57.931Z,12.80
2018-11-13T03:49:26.182Z,12.90
2018-11-13T03:51:54.484Z,12.90
2018-11-13T03:54:22.801Z,12.80
2018-11-13T03:56:51.089Z,12.60
2018-11-13T03:59:19.381Z,12.60
2018-11-13T04:01:47.689Z,12.60
2018-11-13T04:04:16.039Z,12.50
2018-11-13T04:06:45.086Z,12.50
2018-11-13T04:09:14.535Z,12.60
2018-11-13T04:11:43.036Z,12.50
2018-11-13T04:14:11.738Z,12.50
2018-11-13T04:16:40.156Z,12.50
2018-11-13T04:19:08.922Z,12.60
2018-11-13T04:21:37.711Z,12.50
2018-11-13T04:24:06.547Z,12.60
2018-11-13T04:26:34.830Z,12.50
2018-11-13T04:29:03.172Z,12.50
2018-11-13T04:31:31.436Z,12.40
2018-11-13T04:33:59.685Z,12.40
2018-11-13T04:36:28.036Z,12.50
2018-11-13T04:38:56.353Z,12.40
2018-11-13T04:41:24.644Z,12.50
2018-11-13T04:43:52.908Z,12.60
2018-11-13T04:46:27.753Z,12.70
2018-11-13T04:48:56.041Z,12.60
2018-11-13T04:51:24.341Z,12.50
2018-11-13T04:53:52.604Z,12.50
2018-11-13T04:56:20.930Z,12.70
2018-11-13T04:58:49.209Z,12.70
2018-11-13T05:01:17.579Z,12.70
2018-11-13T05:03:45.893Z,12.80
2018-11-13T05:06:14.338Z,12.80
2018-11-13T05:08:42.617Z,12.70
2018-11-13T05:11:10.871Z,12.80
2018-11-13T05:13:39.185Z,12.80
2018-11-13T05:16:07.611Z,12.80
2018-11-13T05:18:36.128Z,12.70
2018-11-13T05:21:04.445Z,12.60
2018-11-13T05:23:32.740Z,12.60
2018-11-13T05:26:01.115Z,12.50
2018-11-13T05:28:29.387Z,12.50
2018-11-13T05:30:57.792Z,12.50
2018-11-13T05:33:26.139Z,12.50
2018-11-13T05:35:54.426Z,12.60
2018-11-13T05:38:22.678Z,12.70
2018-11-13T05:40:50.970Z,12.70
2018-11-13T05:43:19.314Z,12.70
2018-11-13T05:45:47.604Z,12.80
2018-11-13T05:48:19.466Z,12.70
2018-11-13T05:50:47.766Z,12.70
2018-11-13T05:53:15.995Z,12.70
2018-11-13T05:55:44.321Z,12.70
2018-11-13T05:58:12.863Z,12.70
2018-11-13T06:00:41.360Z,12.70
2018-11-13T06:03:09.812Z,12.70
2018-11-13T06:05:38.085Z,12.70
2018-11-13T06:08:06.608Z,12.80
2018-11-13T06:10:34.861Z,12.80
2018-11-13T06:13:03.106Z,12.80
2018-11-13T06:15:31.656Z,12.70
2018-11-13T06:17:59.913Z,12.70
2018-11-13T06:20:28.209Z,12.70
2018-11-13T06:22:56.612Z,12.80
2018-11-13T06:25:24.893Z,12.70
2018-11-13T06:27:53.278Z,12.60
2018-11-13T06:30:22.932Z,12.70
2018-11-13T06:32:51.308Z,12.80
2018-11-13T06:35:19.710Z,12.70
2018-11-13T06:37:48.124Z,12.70
2018-11-13T06:40:16.396Z,12.60
2018-11-13T06:42:44.654Z,12.70
2018-11-13T06:45:14.971Z,12.70
2018-11-13T06:47:44.079Z,12.60
2018-11-13T06:50:12.960Z,12.60
2018-11-13T06:52:42.922Z,12.60
2018-11-13T06:55:16.866Z,12.60
2018-11-13T06:57:45.410Z,12.60
2018-11-13T07:00:13.882Z,12.60
2018-11-13T07:02:42.357Z,12.70
2018-11-13T07:05:12.818Z,12.70
2018-11-13T07:07:41.956Z,12.70
2018-11-13T07:10:12.238Z,12.60
2018-11-13T07:12:41.793Z,12.70
2018-11-13T07:15:11.875Z,12.60
2018-11-13T07:17:40.795Z,12.60
2018-11-13T07:20:09.302Z,12.60
2018-11-13T07:22:37.765Z,12.50
2018-11-13T07:25:06.254Z,12.40
2018-11-13T07:27:34.884Z,12.40
2018-11-13T07:30:03.461Z,12.40
2018-11-13T07:32:31.845Z,12.40
2018-11-13T07:35:00.727Z,12.40
2018-11-13T07:37:29.286Z,12.50
2018-11-13T07:39:57.907Z,12.50
2018-11-13T07:42:26.553Z,12.50
2018-11-13T07:44:55.038Z,12.40
2018-11-13T07:47:23.635Z,12.50
2018-11-13T07:49:52.005Z,12.60
2018-11-13T07:52:20.491Z,12.70
2018-11-13T07:54:48.914Z,12.90
2018-11-13T07:57:17.338Z,12.90
2018-11-13T07:59:45.839Z,12.90
2018-11-13T08:02:14.306Z,13.10
2018-11-13T08:04:42.746Z,13.20
2018-11-13T08:07:18.011Z,13.50
2018-11-13T08:09:46.434Z,13.60
2018-11-13T08:12:15.193Z,13.90
2018-11-13T08:14:43.546Z,14.10
2018-11-13T08:17:12.021Z,14.20
2018-11-13T08:19:40.427Z,14.40
2018-11-13T08:22:08.908Z,14.60
2018-11-13T08:24:37.336Z,14.60
2018-11-13T08:27:05.775Z,14.60
2018-11-13T08:29:34.294Z,14.70
2018-11-13T08:32:02.806Z,14.70
2018-11-13T08:34:38.318Z,14.50
2018-11-13T08:37:06.798Z,14.50
2018-11-13T08:39:35.583Z,14.40
2018-11-13T08:42:04.320Z,14.30
2018-11-13T08:44:32.883Z,14.50
2018-11-13T08:47:01.334Z,14.80
2018-11-13T08:49:30.273Z,15.20
2018-11-13T08:51:59.616Z,15.10
2018-11-13T08:54:29.372Z,14.90
2018-11-13T08:56:58.396Z,14.90
2018-11-13T08:59:26.837Z,14.90
2018-11-13T09:01:56.287Z,14.90
2018-11-13T09:04:24.972Z,14.90
2018-11-13T09:06:54.439Z,14.90
2018-11-13T09:09:23.247Z,14.80
2018-11-13T09:11:52.977Z,14.80
2018-11-13T09:14:22.573Z,14.70
2018-11-13T09:16:51.367Z,14.80
2018-11-13T09:19:22.758Z,14.70
2018-11-13T09:21:51.693Z,14.70
2018-11-13T09:24:20.152Z,14.80
2018-11-13T09:26:55.498Z,14.70
2018-11-13T09:29:24.109Z,14.80
2018-11-13T09:31:56.683Z,14.80
2018-11-13T09:34:25.176Z,14.80
2018-11-13T09:36:53.683Z,14.80
2018-11-13T09:39:21.957Z,14.90
2018-11-13T09:41:50.345Z,15.10
2018-11-13T09:44:18.932Z,15.10
2018-11-13T09:46:47.478Z,16.10
2018-11-13T09:49:16.023Z,17.10
2018-11-13T09:51:44.582Z,18.00
2018-11-13T09:54:13.059Z,17.60
2018-11-13T09:56:41.703Z,17.20
2018-11-13T09:59:10.124Z,17.10
2018-11-13T10:01:38.839Z,16.80
2018-11-13T10:04:07.726Z,16.80
2018-11-13T10:06:36.061Z,16.90
2018-11-13T10:09:09.645Z,16.90
2018-11-13T10:11:38.409Z,17.40
2018-11-13T10:14:06.838Z,17.70
2018-11-13T10:16:35.878Z,17.80
2018-11-13T10:19:04.592Z,18.00
2018-11-13T10:21:32.910Z,17.50
2018-11-13T10:24:01.389Z,17.20
2018-11-13T10:26:29.916Z,18.10
2018-11-13T10:28:59.068Z,17.80
2018-11-13T10:31:27.566Z,17.30
2018-11-13T10:33:57.162Z,16.60
2018-11-13T10:36:26.049Z,16.50
2018-11-13T10:38:54.570Z,16.40
2018-11-13T10:41:23.499Z,16.10
2018-11-13T10:43:52.103Z,16.50
2018-11-13T10:46:20.504Z,16.40
2018-11-13T10:48:49.938Z,16.00
2018-11-13T10:51:18.748Z,15.90
2018-11-13T10:53:50.776Z,15.50
2018-11-13T10:56:19.570Z,15.00
2018-11-13T10:58:48.600Z,15.00
2018-11-13T11:01:22.576Z,15.40
2018-11-13T11:03:56.573Z,16.00
2018-11-13T11:06:25.415Z,16.60
2018-11-13T11:08:53.852Z,17.00
2018-11-13T11:11:22.472Z,16.90
2018-11-13T11:13:51.543Z,16.70
2018-11-13T11:16:19.983Z,16.60
2018-11-13T11:18:48.666Z,17.80
2018-11-13T11:21:17.515Z,18.70
2018-11-13T11:23:45.914Z,18.40
2018-11-13T11:26:14.411Z,18.80
2018-11-13T11:28:43.081Z,19.30
2018-11-13T11:31:11.829Z,20.00
2018-11-13T11:33:40.713Z,20.80
2018-11-13T11:36:09.556Z,21.10
2018-11-13T11:38:38.285Z,20.60
2018-11-13T11:41:06.638Z,20.90
2018-11-13T11:43:35.784Z,20.60
2018-11-13T11:46:04.459Z,20.60
2018-11-13T11:48:32.971Z,20.70
2018-11-13T11:51:01.587Z,20.80
2018-11-13T11:53:30.387Z,21.80
2018-11-13T11:55:58.940Z,21.30
2018-11-13T11:58:27.670Z,21.10
2018-11-13T12:00:56.246Z,21.50
2018-11-13T12:03:24.937Z,21.80
2018-11-13T12:05:53.403Z,21.80
2018-11-13T12:08:21.996Z,22.10
2018-11-13T12:10:50.483Z,21.90
2018-11-13T12:13:19.064Z,21.50
2018-11-13T12:15:47.614Z,21.70
2018-11-13T12:18:20.210Z,21.40
2018-11-13T12:20:48.829Z,21.40
2018-11-13T12:23:17.587Z,21.00
2018-11-13T12:25:46.192Z,21.00
2018-11-13T12:28:15.534Z,20.80
2018-11-13T12:30:45.195Z,21.20
2018-11-13T12:33:13.820Z,21.70
2018-11-13T12:35:42.495Z,22.90
2018-11-13T12:38:11.120Z,23.30
2018-11-13T12:40:41.624Z,23.00
2018-11-13T12:43:09.646Z,22.90
2018-11-13T12:45:38.349Z,22.00
2018-11-13T12:48:07.393Z,22.70
2018-11-13T12:50:41.637Z,21.30
2018-11-13T12:53:10.200Z,20.60
2018-11-13T12:55:38.936Z,22.30
2018-11-13T12:58:10.167Z,21.00
2018-11-13T13:00:51.683Z,23.10
2018-11-13T13:03:20.098Z,23.30
2018-11-13T13:05:48.299Z,23.70
2018-11-13T13:08:16.544Z,24.60
2018-11-13T13:10:44.947Z,25.70
2018-11-13T13:13:13.134Z,21.40
2018-11-13T13:15:41.344Z,20.00
2018-11-13T13:18:09.606Z,19.80
2018-11-13T13:20:37.800Z,20.40
2018-11-13T13:23:06.053Z,19.30
2018-11-13T13:25:34.235Z,18.10
2018-11-13T13:28:02.412Z,17.80
2018-11-13T13:30:30.632Z,17.50
2018-11-13T13:32:58.882Z,17.50
2018-11-13T13:35:34.302Z,17.50
2018-11-13T13:38:02.512Z,17.30
2018-11-13T13:40:30.716Z,17.40
2018-11-13T13:42:59.056Z,16.50
2018-11-13T13:45:27.549Z,16.20
2018-11-13T13:47:56.029Z,16.20
2018-11-13T13:50:24.260Z,16.00
2018-11-13T13:52:52.503Z,15.80
2018-11-13T13:55:21.291Z,15.80
2018-11-13T13:57:49.530Z,15.90
2018-11-13T14:00:18.140Z,18.40
2018-11-13T14:02:46.070Z,17.00
2018-11-13T14:05:14.391Z,16.50
2018-11-13T14:07:42.605Z,15.90
2018-11-13T14:10:11.150Z,15.70
2018-11-13T14:12:39.330Z,15.70
2018-11-13T14:15:09.104Z,15.80
2018-11-13T14:17:37.273Z,15.90
2018-11-13T14:20:08.484Z,15.70
2018-11-13T14:22:36.686Z,16.70
2018-11-13T14:25:05.223Z,16.30
2018-11-13T14:27:33.424Z,16.00
2018-11-13T14:30:01.615Z,16.10
2018-11-13T14:32:29.864Z,16.20
2018-11-13T14:34:58.442Z,16.30
2018-11-13T14:37:26.661Z,16.00
2018-11-13T14:39:54.851Z,15.90
2018-11-13T14:42:23.061Z,15.80
2018-11-13T14:44:51.378Z,15.80
2018-11-13T14:47:19.607Z,16.00
2018-11-13T14:49:47.817Z,15.80
2018-11-13T14:52:16.007Z,15.70
2018-11-13T14:54:44.311Z,15.50
2018-11-13T14:57:12.524Z,15.30
2018-11-13T14:59:40.680Z,15.20
2018-11-13T15:02:08.872Z,15.10
2018-11-13T15:04:37.071Z,15.00
2018-11-13T15:07:05.332Z,15.10
2018-11-13T15:09:33.576Z,15.20
2018-11-13T15:12:01.761Z,15.10
2018-11-13T15:14:29.973Z,15.10
2018-11-13T15:16:58.171Z,15.10
2018-11-13T15:19:26.395Z,15.20
2018-11-13T15:21:54.609Z,15.10
2018-11-13T15:24:22.882Z,15.10
2018-11-13T15:26:51.051Z,15.20
2018-11-13T15:29:19.272Z,15.10
2018-11-13T15:31:47.525Z,15.00
2018-11-13T15:34:15.727Z,14.90
2018-11-13T15:36:44.072Z,14.80
2018-11-13T15:39:13.125Z,14.60
2018-11-13T15:41:41.378Z,14.50
2018-11-13T15:44:09.563Z,14.50
2018-11-13T15:46:37.777Z,14.40
2018-11-13T15:49:06.048Z,14.40
2018-11-13T15:51:34.259Z,14.40
2018-11-13T15:54:02.487Z,14.40
2018-11-13T15:56:30.763Z,14.30
2018-11-13T15:58:58.994Z,14.20
2018-11-13T16:01:27.238Z,14.10
2018-11-13T16:03:55.407Z,14.10
2018-11-13T16:06:23.704Z,14.20
2018-11-13T16:08:51.813Z,14.20
2018-11-13T16:11:20.025Z,14.30
2018-11-13T16:13:48.359Z,14.30
2018-11-13T16:16:16.534Z,14.30
2018-11-13T16:18:44.773Z,14.30
2018-11-13T16:21:13.099Z,14.10
2018-11-13T16:23:41.240Z,14.10
2018-11-13T16:26:09.503Z,14.10
2018-11-13T16:28:37.724Z,13.90
2018-11-13T16:31:05.911Z,13.90
2018-11-13T16:33:34.115Z,14.00
2018-11-13T16:36:02.273Z,13.90
2018-11-13T16:38:30.594Z,13.90
2018-11-13T16:40:58.685Z,13.90
2018-11-13T16:43:26.947Z,14.00
2018-11-13T16:45:55.156Z,14.00
2018-11-13T16:48:24.258Z,13.80
2018-11-13T16:50:52.473Z,13.90
2018-11-13T16:53:20.735Z,13.80
2018-11-13T16:56:06.359Z,13.90
2018-11-13T16:58:34.588Z,13.80
2018-11-13T17:01:02.802Z,13.70
2018-11-13T17:03:31.807Z,13.70
2018-11-13T17:06:00.130Z,13.60
2018-11-13T17:08:29.044Z,13.50
2018-11-13T17:10:57.840Z,13.40
2018-11-13T17:13:26.049Z,13.40
2018-11-13T17:15:54.249Z,13.30
2018-11-13T17:18:22.414Z,13.40
2018-11-13T17:20:50.644Z,13.40
2018-11-13T17:23:18.820Z,13.50
2018-11-13T17:25:47.196Z,13.50
2018-11-13T17:28:15.411Z,13.50
2018-11-13T17:30:43.602Z,13.50
2018-11-13T17:33:11.807Z,13.40
2018-11-13T17:35:40.044Z,13.40
2018-11-13T17:38:08.290Z,13.40
2018-11-13T17:40:37.257Z,13.30
2018-11-13T17:43:06.494Z,13.20
2018-11-13T17:45:35.937Z,13.20
2018-11-13T17:48:04.148Z,13.20
2018-11-13T17:50:33.576Z,13.20
2018-11-13T17:53:02.002Z,13.10
2018-11-13T17:55:30.242Z,13.00
2018-11-13T17:58:00.016Z,13.00
2018-11-13T18:00:30.995Z,12.90
2018-11-13T18:02:59.479Z,12.90
2018-11-13T18:05:28.077Z,12.90
2018-11-13T18:07:57.413Z,12.90
2018-11-13T18:10:26.224Z,12.80
2018-11-13T18:12:54.414Z,12.70
2018-11-13T18:15:24.075Z,12.70
2018-11-13T18:17:52.323Z,12.70
2018-11-13T18:20:22.736Z,12.70
2018-11-13T18:22:51.012Z,12.60
2018-11-13T18:25:19.207Z,12.50
2018-11-13T18:27:50.650Z,12.40
2018-11-13T18:30:20.755Z,12.40
2018-11-13T18:32:49.312Z,12.40
2018-11-13T18:35:18.887Z,12.40
2018-11-13T18:37:47.732Z,12.40
2018-11-13T18:40:16.961Z,12.40
2018-11-13T18:42:46.282Z,12.40
2018-11-13T18:45:19.229Z,12.30
2018-11-13T18:47:47.457Z,12.30
2018-11-13T18:50:17.560Z,12.20
2018-11-13T18:52:45.715Z,12.20
2018-11-13T18:55:14.458Z,12.20
2018-11-13T18:57:43.048Z,12.00
2018-11-13T19:00:20.752Z,11.90
2018-11-13T19:02:50.395Z,11.90
2018-11-13T19:05:18.812Z,11.90
2018-11-13T19:07:47.045Z,11.80
2018-11-13T19:10:25.476Z,11.80
2018-11-13T19:12:54.434Z,11.80
2018-11-13T19:15:22.605Z,11.80
2018-11-13T19:17:50.979Z,11.70
2018-11-13T19:20:20.172Z,11.70
2018-11-13T19:22:48.395Z,11.60
2018-11-13T19:25:20.968Z,11.60
2018-11-13T19:27:50.724Z,11.60
2018-11-13T19:30:20.036Z,11.50
2018-11-13T19:32:48.226Z,11.50
2018-11-13T19:35:17.565Z,11.40
2018-11-13T19:37:46.197Z,11.40
2018-11-13T19:40:18.590Z,11.40
2018-11-13T19:42:47.571Z,11.30
2018-11-13T19:45:16.203Z,11.30
2018-11-13T19:47:44.452Z,11.20
2018-11-13T19:50:14.279Z,11.20
2018-11-13T19:52:42.603Z,11.20
2018-11-13T19:55:11.984Z,11.10
2018-11-13T19:57:41.990Z,11.00
2018-11-13T20:00:12.864Z,10.90
2018-11-13T20:02:41.188Z,11.00
2018-11-13T20:05:10.695Z,10.90
2018-11-13T20:07:38.950Z,10.70
2018-11-13T20:10:30.653Z,10.70
2018-11-13T20:13:00.402Z,10.60
2018-11-13T20:15:29.173Z,10.50
2018-11-13T20:17:57.417Z,10.30
2018-11-13T20:20:26.946Z,10.30
2018-11-13T20:22:55.715Z,10.40
2018-11-13T20:25:28.049Z,10.40
2018-11-13T20:27:56.257Z,10.50
2018-11-13T20:30:26.910Z,10.50
2018-11-13T20:32:55.191Z,10.60
2018-11-13T20:35:23.403Z,10.60
2018-11-13T20:37:52.128Z,10.50
2018-11-13T20:40:21.521Z,10.50
2018-11-13T20:42:51.077Z,10.50
2018-11-13T20:45:19.281Z,10.30
2018-11-13T20:47:47.469Z,10.40
2018-11-13T20:50:26.235Z,10.40
2018-11-13T20:52:55.327Z,10.40
2018-11-13T20:55:24.424Z,10.40
2018-11-13T20:57:54.237Z,10.30
2018-11-13T21:00:27.503Z,10.30
2018-11-13T21:02:56.309Z,10.10
2018-11-13T21:05:26.810Z,10.10
2018-11-13T21:07:56.475Z,10.10
2018-11-13T21:26:11.781Z,10.20
2018-11-13T21:44:15.238Z,9.90
2018-11-13T21:46:43.952Z,9.80
2018-11-13T21:49:14.761Z,9.60
2018-11-13T21:51:43.757Z,9.60
2018-11-13T21:54:17.464Z,9.40
2018-11-13T22:02:02.947Z,9.50
2018-11-13T22:04:49.162Z,9.60
2018-11-13T22:07:21.170Z,9.70
2018-11-13T22:09:50.098Z,9.50
2018-11-13T22:12:23.459Z,9.50
2018-11-13T22:14:52.568Z,9.50
2018-11-13T22:17:21.788Z,9.50
2018-11-13T22:19:51.219Z,9.50
2018-11-13T22:25:31.803Z,9.60
2018-11-13T22:28:12.529Z,9.60
2018-11-13T22:30:46.641Z,9.50
2018-11-13T22:33:15.744Z,9.50
2018-11-13T22:35:57.501Z,9.60
2018-11-13T22:41:25.342Z,9.60
2018-11-13T22:51:48.672Z,9.60
2018-11-13T22:54:25.705Z,9.50
2018-11-13T22:56:55.030Z,9.40
2018-11-13T22:59:29.171Z,9.40
2018-11-13T23:01:58.471Z,9.40
2018-11-13T23:04:29.718Z,9.30
2018-11-13T23:06:58.406Z,9.20
2018-11-13T23:09:33.744Z,9.30
2018-11-13T23:12:03.168Z,9.20
2018-11-13T23:14:37.774Z,9.20
2018-11-13T23:20:33.216Z,9.10
2018-11-13T23:23:02.520Z,9.10
2018-11-13T23:25:40.161Z,9.10
2018-11-13T23:28:09.662Z,9.10
2018-11-13T23:37:05.223Z,9.20
2018-11-13T23:39:34.506Z,9.20
2018-11-13T23:42:34.880Z,9.10
2018-11-13T23:45:06.338Z,9.10
2018-11-13T23:47:35.547Z,9.10
2018-11-13T23:50:06.091Z,9.00
2018-11-13T23:52:35.741Z,9.00
